createdAt,value
2019-05-28T00:01:06.695Z,7.50
2019-05-28T00:03:38.382Z,7.47
2019-05-28T00:06:09.735Z,6.93
2019-05-28T00:08:41.639Z,7.60
2019-05-28T00:11:12.882Z,7.60
2019-05-28T00:13:44.445Z,7.73
2019-05-28T00:16:15.635Z,8.10
2019-05-28T00:18:46.781Z,7.63
2019-05-28T00:21:17.958Z,7.60
2019-05-28T00:23:49.229Z,7.87
2019-05-28T00:26:20.482Z,7.67
2019-05-28T00:28:51.978Z,8.27
2019-05-28T00:31:23.326Z,7.57
2019-05-28T00:33:54.642Z,7.93
2019-05-28T00:36:25.771Z,7.43
2019-05-28T00:38:57.152Z,7.67
2019-05-28T00:41:28.817Z,8.20
2019-05-28T00:44:00.023Z,7.63
2019-05-28T00:46:31.751Z,7.97
2019-05-28T00:49:03.108Z,7.87
2019-05-28T00:51:35.697Z,8.30
2019-05-28T00:54:07.075Z,7.50
2019-05-28T00:56:39.391Z,6.67
2019-05-28T00:59:11.656Z,7.53
2019-05-28T01:01:42.969Z,7.90
2019-05-28T01:04:14.738Z,8.73
2019-05-28T01:06:46.426Z,9.37
2019-05-28T01:09:17.727Z,8.47
2019-05-28T01:11:48.845Z,7.93
2019-05-28T01:14:20.141Z,7.83
2019-05-28T01:16:51.350Z,6.90
2019-05-28T01:19:22.860Z,7.37
2019-05-28T01:21:54.105Z,7.43
2019-05-28T01:24:25.491Z,7.83
2019-05-28T01:26:56.655Z,7.43
2019-05-28T01:29:27.831Z,8.37
2019-05-28T01:31:59.098Z,8.47
2019-05-28T01:34:30.326Z,8.87
2019-05-28T01:37:01.995Z,7.60
2019-05-28T01:39:33.106Z,8.27
2019-05-28T01:42:04.612Z,7.83
2019-05-28T01:44:35.727Z,7.47
2019-05-28T01:47:06.937Z,7.40
2019-05-28T01:49:38.160Z,7.93
2019-05-28T01:52:09.775Z,7.67
2019-05-28T01:54:41.061Z,8.40
2019-05-28T01:57:12.600Z,8.20
2019-05-28T01:59:44.213Z,7.90
2019-05-28T02:02:15.532Z,8.43
2019-05-28T02:04:46.932Z,8.10
2019-05-28T02:07:18.618Z,7.30
2019-05-28T02:09:50.154Z,7.90
2019-05-28T02:12:21.450Z,7.40
2019-05-28T02:14:53.077Z,8.13
2019-05-28T02:17:24.267Z,7.90
2019-05-28T02:19:55.725Z,7.50
2019-05-28T02:22:27.140Z,8.07
2019-05-28T02:24:58.345Z,8.10
2019-05-28T02:27:29.466Z,8.07
2019-05-28T02:30:01.102Z,7.87
2019-05-28T02:32:32.390Z,7.70
2019-05-28T02:35:04.033Z,8.73
2019-05-28T02:37:35.164Z,8.00
2019-05-28T02:40:07.754Z,8.03
2019-05-28T02:42:39.320Z,7.60
2019-05-28T02:45:11.987Z,8.00
2019-05-28T02:47:43.844Z,7.97
2019-05-28T02:50:17.391Z,8.07
2019-05-28T02:52:49.548Z,7.40
2019-05-28T02:55:20.915Z,8.37
2019-05-28T02:57:52.539Z,7.70
2019-05-28T03:00:24.237Z,7.90
2019-05-28T03:02:58.585Z,7.77
2019-05-28T03:05:32.513Z,7.50
2019-05-28T03:08:05.373Z,7.23
2019-05-28T03:11:01.339Z,7.80
2019-05-28T03:13:11.785Z,6.93
2019-05-28T03:15:47.492Z,7.67
2019-05-28T03:18:22.798Z,6.90
2019-05-28T03:20:57.103Z,7.53
2019-05-28T03:23:31.382Z,7.23
2019-05-28T03:26:03.060Z,7.80
2019-05-28T03:28:34.601Z,8.13
2019-05-28T03:31:06.791Z,7.70
2019-05-28T03:33:38.147Z,7.20
2019-05-28T03:36:12.918Z,7.83
2019-05-28T03:38:46.644Z,7.90
2019-05-28T03:41:18.542Z,8.30
2019-05-28T03:43:49.724Z,8.37
2019-05-28T03:46:21.028Z,8.50
2019-05-28T03:48:52.175Z,8.10
2019-05-28T03:51:23.664Z,8.50
2019-05-28T03:53:54.855Z,8.03
2019-05-28T03:56:26.547Z,7.80
2019-05-28T03:58:57.810Z,7.47
2019-05-28T04:01:29.499Z,8.13
2019-05-28T04:04:00.924Z,7.50
2019-05-28T04:06:32.231Z,7.87
2019-05-28T04:09:03.446Z,7.73
2019-05-28T04:11:44.434Z,7.83
2019-05-28T04:14:07.769Z,7.87
2019-05-28T04:16:38.898Z,7.73
2019-05-28T04:19:10.184Z,6.80
2019-05-28T04:21:41.329Z,6.70
2019-05-28T04:24:12.771Z,6.30
2019-05-28T04:26:44.122Z,6.67
2019-05-28T04:29:15.399Z,6.33
2019-05-28T04:31:46.588Z,6.47
2019-05-28T04:34:17.798Z,6.67
2019-05-28T04:36:48.982Z,6.03
2019-05-28T04:39:20.263Z,5.50
2019-05-28T04:41:51.558Z,6.27
2019-05-28T04:44:23.081Z,5.63
2019-05-28T04:47:01.215Z,5.67
2019-05-28T04:49:32.624Z,5.97
2019-05-28T04:52:04.280Z,6.03
2019-05-28T04:54:35.868Z,6.07
2019-05-28T04:57:07.564Z,5.63
2019-05-28T04:59:38.972Z,6.50
2019-05-28T05:02:10.246Z,5.77
2019-05-28T05:04:41.564Z,5.50
2019-05-28T05:07:13.137Z,6.50
2019-05-28T05:09:44.397Z,6.37
2019-05-28T05:12:15.958Z,5.60
2019-05-28T05:14:47.499Z,5.60
2019-05-28T05:17:18.767Z,5.40
2019-05-28T05:19:50.480Z,5.63
2019-05-28T05:22:21.698Z,5.33
2019-05-28T05:24:52.869Z,6.90
2019-05-28T05:27:24.079Z,5.50
2019-05-28T05:29:55.438Z,6.13
2019-05-28T05:32:27.855Z,5.00
2019-05-28T05:34:59.193Z,4.63
2019-05-28T05:37:30.467Z,5.67
2019-05-28T05:40:01.718Z,4.80
2019-05-28T05:42:33.449Z,4.30
2019-05-28T05:45:07.614Z,4.70
2019-05-28T05:47:38.540Z,4.70
2019-05-28T05:50:10.101Z,4.70
2019-05-28T05:52:41.686Z,4.30
2019-05-28T05:55:13.152Z,4.10
2019-05-28T05:57:44.747Z,4.33
2019-05-28T06:00:17.384Z,4.37
2019-05-28T06:02:48.638Z,3.93
2019-05-28T06:05:19.910Z,4.23
2019-05-28T06:07:51.035Z,3.97
2019-05-28T06:10:22.329Z,4.30
2019-05-28T06:12:53.724Z,4.60
2019-05-28T06:15:24.946Z,3.73
2019-05-28T06:17:56.453Z,4.20
2019-05-28T06:20:27.810Z,3.40
2019-05-28T06:22:59.160Z,3.57
2019-05-28T06:25:30.499Z,3.67
2019-05-28T06:28:01.730Z,3.77
2019-05-28T06:30:32.997Z,3.77
2019-05-28T06:33:04.749Z,3.63
2019-05-28T06:35:36.363Z,3.97
2019-05-28T06:38:07.729Z,3.93
2019-05-28T06:40:39.106Z,3.60
2019-05-28T06:43:10.640Z,3.45
2019-05-28T06:45:42.080Z,3.30
2019-05-28T06:48:13.699Z,3.73
2019-05-28T06:50:44.993Z,3.00
2019-05-28T06:53:16.097Z,3.05
2019-05-28T06:55:47.388Z,4.83
2019-05-28T06:58:19.011Z,4.53
2019-05-28T07:00:50.261Z,4.07
2019-05-28T07:03:21.505Z,3.98
2019-05-28T07:06:06.268Z,4.22
2019-05-28T07:08:26.084Z,3.52
2019-05-28T07:10:58.602Z,3.65
2019-05-28T07:13:30.154Z,4.30
2019-05-28T07:16:01.496Z,3.70
2019-05-28T07:18:32.866Z,3.60
2019-05-28T07:21:04.438Z,3.77
2019-05-28T07:23:36.118Z,3.15
2019-05-28T07:26:07.422Z,2.90
2019-05-28T07:28:38.703Z,3.62
2019-05-28T07:31:09.969Z,5.25
2019-05-28T07:33:41.218Z,3.08
2019-05-28T07:36:12.640Z,3.90
2019-05-28T07:38:43.799Z,3.40
2019-05-28T07:41:15.078Z,4.08
2019-05-28T07:43:46.601Z,4.65
2019-05-28T07:46:17.760Z,3.20
2019-05-28T07:48:49.402Z,5.08
2019-05-28T07:51:20.804Z,3.98
2019-05-28T07:53:52.780Z,3.60
2019-05-28T07:56:24.013Z,3.87
2019-05-28T07:58:55.207Z,3.80
2019-05-28T08:01:26.617Z,4.10
2019-05-28T08:03:57.936Z,4.50
2019-05-28T08:06:29.111Z,4.53
2019-05-28T08:09:00.346Z,4.17
2019-05-28T08:11:31.951Z,3.60
2019-05-28T08:14:03.287Z,3.80
2019-05-28T08:16:35.197Z,3.87
2019-05-28T08:19:08.846Z,3.90
2019-05-28T08:21:39.539Z,3.15
2019-05-28T08:24:10.731Z,2.67
2019-05-28T08:26:41.996Z,3.08
2019-05-28T08:29:13.380Z,2.95
2019-05-28T08:31:45.281Z,3.00
2019-05-28T08:34:19.366Z,2.75
2019-05-28T08:37:04.437Z,2.55
2019-05-28T08:39:22.402Z,2.83
2019-05-28T08:41:53.838Z,2.27
2019-05-28T08:44:25.101Z,2.77
2019-05-28T08:46:57.274Z,2.30
2019-05-28T08:49:28.769Z,3.08
2019-05-28T08:52:00.098Z,2.72
2019-05-28T08:54:33.157Z,2.25
2019-05-28T08:57:04.948Z,2.27
2019-05-28T08:59:36.217Z,2.45
2019-05-28T09:02:26.003Z,2.70
2019-05-28T09:04:40.449Z,2.67
2019-05-28T09:07:11.691Z,2.40
2019-05-28T09:10:02.127Z,2.42
2019-05-28T09:12:33.825Z,2.45
2019-05-28T09:15:05.566Z,2.62
2019-05-28T09:17:36.736Z,2.17
2019-05-28T09:20:08.160Z,3.12
2019-05-28T09:22:39.715Z,2.52
2019-05-28T09:25:11.193Z,2.83
2019-05-28T09:27:42.391Z,2.98
2019-05-28T09:30:14.854Z,2.55
2019-05-28T09:32:46.120Z,3.30
2019-05-28T09:35:17.547Z,2.87
2019-05-28T09:37:48.922Z,2.72
2019-05-28T09:40:20.687Z,3.12
2019-05-28T09:42:52.064Z,2.87
2019-05-28T09:45:23.666Z,2.50
2019-05-28T09:47:55.413Z,3.08
2019-05-28T09:50:31.110Z,3.17
2019-05-28T09:52:59.823Z,4.60
2019-05-28T09:55:31.094Z,4.53
2019-05-28T09:58:02.400Z,5.58
2019-05-28T10:00:36.811Z,5.23
2019-05-28T10:03:08.515Z,5.23
2019-05-28T10:05:39.841Z,3.70
2019-05-28T10:08:11.156Z,4.07
2019-05-28T10:10:42.523Z,3.60
2019-05-28T10:13:13.894Z,3.17
2019-05-28T10:15:45.597Z,3.17
2019-05-28T10:18:17.156Z,2.03
2019-05-28T10:20:48.246Z,2.15
2019-05-28T10:23:19.549Z,1.60
2019-05-28T10:25:50.872Z,2.00
2019-05-28T10:28:22.179Z,2.30
2019-05-28T10:30:53.455Z,2.83
2019-05-28T10:33:24.862Z,3.00
2019-05-28T10:35:56.116Z,3.22
2019-05-28T10:38:27.566Z,3.60
2019-05-28T10:40:58.925Z,3.15
2019-05-28T10:43:30.269Z,2.98
2019-05-28T10:46:01.585Z,2.83
2019-05-28T10:48:33.748Z,3.10
2019-05-28T10:51:05.081Z,7.67
2019-05-28T10:53:36.359Z,1.50
2019-05-28T10:56:07.564Z,1.50
2019-05-28T10:58:39.264Z,1.20
2019-05-28T11:01:10.916Z,1.50
2019-05-28T11:03:42.595Z,2.20
2019-05-28T11:06:13.952Z,2.23
2019-05-28T11:08:45.251Z,2.07
2019-05-28T11:11:16.443Z,1.20
2019-05-28T11:13:53.133Z,1.00
2019-05-28T11:16:20.764Z,1.57
2019-05-28T11:18:51.904Z,1.47
2019-05-28T11:21:22.995Z,1.60
2019-05-28T11:23:54.282Z,2.00
2019-05-28T11:26:25.545Z,1.40
2019-05-28T11:28:56.756Z,1.20
2019-05-28T11:31:28.310Z,1.47
2019-05-28T11:33:59.780Z,1.30
2019-05-28T11:36:31.028Z,1.50
2019-05-28T11:39:02.329Z,1.30
2019-05-28T11:41:42.222Z,1.30
2019-05-28T11:44:07.013Z,1.40
2019-05-28T11:46:38.390Z,1.10
2019-05-28T11:49:09.655Z,1.30
2019-05-28T11:51:40.862Z,1.40
2019-05-28T11:54:12.179Z,1.30
2019-05-28T11:56:46.100Z,1.30
2019-05-28T11:59:16.471Z,1.27
2019-05-28T12:01:49.058Z,1.27
2019-05-28T12:04:21.067Z,1.50
2019-05-28T12:06:52.692Z,1.30
2019-05-28T12:09:23.913Z,1.27
2019-05-28T12:11:55.291Z,0.90
2019-05-28T12:14:26.577Z,0.70
2019-05-28T12:16:57.906Z,0.77
2019-05-28T12:19:29.267Z,0.80
2019-05-28T12:22:00.620Z,0.70
2019-05-28T12:24:32.259Z,0.80
2019-05-28T12:27:04.068Z,0.67
2019-05-28T12:29:50.970Z,0.77
2019-05-28T12:32:10.365Z,0.80
2019-05-28T12:34:42.274Z,0.90
2019-05-28T12:37:13.574Z,0.70
2019-05-28T12:39:44.805Z,0.90
2019-05-28T12:42:16.339Z,1.40
2019-05-28T12:44:47.646Z,0.93
2019-05-28T12:47:18.978Z,3.00
2019-05-28T12:49:50.215Z,1.30
2019-05-28T12:52:21.489Z,1.30
2019-05-28T12:54:52.935Z,1.07
2019-05-28T12:57:24.307Z,0.90
2019-05-28T12:59:55.490Z,0.87
2019-05-28T13:02:26.691Z,1.20
2019-05-28T13:04:58.260Z,1.17
2019-05-28T13:07:29.712Z,0.80
2019-05-28T13:10:00.867Z,1.27
2019-05-28T13:12:32.065Z,0.90
2019-05-28T13:15:03.254Z,1.00
2019-05-28T13:17:34.769Z,1.10
2019-05-28T13:20:06.543Z,0.97
2019-05-28T13:22:38.228Z,1.40
2019-05-28T13:25:10.322Z,1.40
2019-05-28T13:27:41.581Z,1.57
2019-05-28T13:30:15.127Z,1.70
2019-05-28T13:32:46.430Z,2.40
2019-05-28T13:35:18.925Z,2.10
2019-05-28T13:37:50.129Z,2.73
2019-05-28T13:40:22.415Z,2.30
2019-05-28T13:42:53.748Z,2.40
2019-05-28T13:45:25.084Z,2.40
2019-05-28T13:47:56.671Z,2.53
2019-05-28T13:50:29.535Z,2.57
2019-05-28T13:53:00.978Z,3.63
2019-05-28T13:55:32.401Z,4.67
2019-05-28T13:58:03.664Z,3.80
2019-05-28T14:00:35.191Z,4.00
2019-05-28T14:03:06.801Z,3.00
2019-05-28T14:05:38.069Z,2.97
2019-05-28T14:08:09.341Z,2.77
2019-05-28T14:10:40.872Z,2.80
2019-05-28T14:13:11.992Z,4.50
2019-05-28T14:15:43.355Z,4.20
2019-05-28T14:18:15.009Z,3.07
2019-05-28T14:20:46.978Z,2.17
2019-05-28T14:23:18.223Z,2.03
2019-05-28T14:25:49.853Z,2.10
2019-05-28T14:28:21.639Z,1.77
2019-05-28T14:31:00.027Z,2.17
2019-05-28T14:33:26.399Z,2.23
2019-05-28T14:35:57.713Z,1.70
2019-05-28T14:38:29.216Z,2.17
2019-05-28T14:41:01.179Z,2.40
2019-05-28T14:43:32.715Z,3.83
2019-05-28T14:46:03.971Z,3.50
2019-05-28T14:48:35.315Z,4.20
2019-05-28T14:51:06.585Z,4.50
2019-05-28T14:53:37.783Z,4.30
2019-05-28T14:56:09.225Z,4.20
2019-05-28T14:58:40.439Z,3.80
2019-05-28T15:01:11.699Z,3.50
2019-05-28T15:03:43.383Z,3.80
2019-05-28T15:06:14.714Z,3.40
2019-05-28T15:08:45.857Z,3.80
2019-05-28T15:11:17.130Z,2.97
2019-05-28T15:13:48.618Z,2.80
2019-05-28T15:16:19.871Z,2.33
2019-05-28T15:18:51.173Z,2.40
2019-05-28T15:21:22.621Z,2.00
2019-05-28T15:23:53.800Z,1.90
2019-05-28T15:26:24.987Z,2.03
2019-05-28T15:28:56.276Z,2.33
2019-05-28T15:31:27.558Z,2.80
2019-05-28T15:33:58.915Z,3.10
2019-05-28T15:36:30.505Z,4.20
2019-05-28T15:39:01.680Z,4.27
2019-05-28T15:41:32.784Z,4.87
2019-05-28T15:44:04.439Z,5.53
2019-05-28T15:46:36.135Z,6.60
2019-05-28T15:49:07.471Z,7.03
2019-05-28T15:51:38.763Z,6.80
2019-05-28T15:54:10.097Z,6.57
2019-05-28T15:56:41.719Z,7.63
2019-05-28T15:59:13.467Z,6.40
2019-05-28T16:01:45.068Z,5.73
2019-05-28T16:04:16.566Z,7.50
2019-05-28T16:06:48.024Z,6.60
2019-05-28T16:09:19.732Z,6.30
2019-05-28T16:11:50.945Z,5.90
2019-05-28T16:14:22.144Z,6.30
2019-05-28T16:16:53.449Z,6.83
2019-05-28T16:19:25.116Z,6.37
2019-05-28T16:21:56.384Z,6.83
2019-05-28T16:24:27.852Z,6.90
2019-05-28T16:26:59.015Z,7.10
2019-05-28T16:29:30.406Z,7.50
2019-05-28T16:32:01.734Z,7.10
2019-05-28T16:34:32.960Z,6.90
2019-05-28T16:37:04.430Z,7.37
2019-05-28T16:39:36.612Z,6.87
2019-05-28T16:42:07.849Z,6.87
2019-05-28T16:44:39.344Z,5.43
2019-05-28T16:47:17.674Z,5.67
2019-05-28T16:49:44.016Z,5.40
2019-05-28T16:52:15.449Z,5.20
2019-05-28T16:54:46.735Z,5.07
2019-05-28T16:57:17.980Z,4.80
2019-05-28T16:59:49.175Z,4.37
2019-05-28T17:02:20.515Z,4.37
2019-05-28T17:04:51.716Z,4.03
2019-05-28T17:07:23.391Z,4.00
2019-05-28T17:09:54.514Z,3.80
2019-05-28T17:12:25.626Z,3.90
2019-05-28T17:14:57.245Z,4.13
2019-05-28T17:17:28.509Z,4.33
2019-05-28T17:19:59.833Z,4.73
2019-05-28T17:22:31.436Z,4.40
2019-05-28T17:25:03.031Z,4.60
2019-05-28T17:27:34.705Z,4.77
2019-05-28T17:30:17.855Z,5.20
2019-05-28T17:32:40.395Z,4.70
2019-05-28T17:35:12.921Z,5.23
2019-05-28T17:37:44.575Z,4.50
2019-05-28T17:40:21.898Z,3.97
2019-05-28T17:42:49.567Z,3.77
2019-05-28T17:45:21.435Z,4.30
2019-05-28T17:47:52.794Z,3.30
2019-05-28T17:50:24.521Z,3.37
2019-05-28T17:52:56.383Z,3.43
2019-05-28T17:55:27.863Z,4.03
2019-05-28T17:57:59.143Z,3.60
2019-05-28T18:00:30.417Z,4.03
2019-05-28T18:03:01.985Z,4.00
2019-05-28T18:05:33.828Z,3.20
2019-05-28T18:08:05.183Z,3.83
2019-05-28T18:10:36.475Z,3.60
2019-05-28T18:13:07.842Z,3.40
2019-05-28T18:15:39.125Z,3.20
2019-05-28T18:18:10.785Z,3.00
2019-05-28T18:20:42.083Z,3.13
2019-05-28T18:23:13.328Z,2.70
2019-05-28T18:25:44.626Z,3.30
2019-05-28T18:28:16.115Z,2.80
2019-05-28T18:30:47.395Z,2.87
2019-05-28T18:33:18.691Z,3.23
2019-05-28T18:35:49.892Z,2.70
2019-05-28T18:38:21.012Z,2.90
2019-05-28T18:40:53.169Z,2.97
2019-05-28T18:43:24.897Z,2.53
2019-05-28T18:45:56.170Z,3.50
2019-05-28T18:48:27.391Z,3.53
2019-05-28T18:50:58.669Z,4.20
2019-05-28T18:53:29.968Z,4.13
2019-05-28T18:56:16.500Z,4.97
2019-05-28T18:58:35.849Z,5.10
2019-05-28T19:01:07.319Z,6.10
2019-05-28T19:03:38.476Z,7.00
2019-05-28T19:06:09.732Z,8.47
2019-05-28T19:08:41.153Z,8.80
2019-05-28T19:11:12.349Z,8.73
2019-05-28T19:13:44.548Z,9.47
2019-05-28T19:16:15.885Z,9.30
2019-05-28T19:18:46.968Z,9.03
2019-05-28T19:21:18.393Z,9.33
2019-05-28T19:23:49.758Z,9.20
2019-05-28T19:26:20.934Z,9.00
2019-05-28T19:28:52.037Z,10.83
2019-05-28T19:31:23.277Z,10.13
2019-05-28T19:33:54.952Z,9.40
2019-05-28T19:36:26.660Z,12.07
2019-05-28T19:38:59.898Z,9.50
2019-05-28T19:41:31.077Z,8.40
2019-05-28T19:44:02.285Z,7.43
2019-05-28T19:46:33.844Z,8.40
2019-05-28T19:49:05.406Z,11.37
2019-05-28T19:51:36.736Z,8.27
2019-05-28T19:54:07.994Z,6.67
2019-05-28T19:56:39.244Z,5.97
2019-05-28T19:59:10.435Z,5.83
2019-05-28T20:01:41.654Z,6.17
2019-05-28T20:04:13.181Z,6.70
2019-05-28T20:06:44.429Z,7.90
2019-05-28T20:09:17.381Z,8.53
2019-05-28T20:11:48.571Z,8.47
2019-05-28T20:14:19.704Z,9.00
2019-05-28T20:16:51.324Z,7.70
2019-05-28T20:19:22.401Z,8.70
2019-05-28T20:21:55.318Z,9.53
2019-05-28T20:24:27.003Z,7.73
2019-05-28T20:26:58.119Z,6.93
2019-05-28T20:29:29.303Z,7.43
2019-05-28T20:32:01.149Z,8.40
2019-05-28T20:34:32.639Z,8.40
2019-05-28T20:37:03.752Z,8.73
2019-05-28T20:39:35.282Z,8.70
2019-05-28T20:42:08.107Z,7.50
2019-05-28T20:44:39.436Z,6.87
2019-05-28T20:47:11.010Z,7.10
2019-05-28T20:49:42.249Z,7.57
2019-05-28T20:52:13.584Z,6.97
2019-05-28T20:54:44.779Z,8.37
2019-05-28T20:57:16.121Z,7.80
2019-05-28T20:59:47.421Z,7.13
2019-05-28T21:02:19.352Z,7.63
2019-05-28T21:04:50.923Z,7.50
2019-05-28T21:07:22.437Z,7.50
2019-05-28T21:09:54.559Z,8.10
2019-05-28T21:12:25.760Z,8.30
2019-05-28T21:14:56.942Z,7.67
2019-05-28T21:17:28.119Z,6.53
2019-05-28T21:19:59.481Z,7.47
2019-05-28T21:22:30.574Z,7.97
2019-05-28T21:25:01.921Z,7.93
2019-05-28T21:27:33.074Z,7.57
2019-05-28T21:30:05.750Z,7.77
2019-05-28T21:32:36.955Z,7.33
2019-05-28T21:35:08.411Z,6.50
2019-05-28T21:37:39.576Z,7.80
2019-05-28T21:40:11.517Z,6.83
2019-05-28T21:42:56.489Z,7.83
2019-05-28T21:45:17.205Z,7.17
2019-05-28T21:47:48.418Z,6.97
2019-05-28T21:50:20.102Z,7.03
2019-05-28T21:52:51.343Z,7.13
2019-05-28T21:55:22.682Z,7.10
2019-05-28T21:57:53.841Z,7.43
2019-05-28T22:00:44.244Z,7.23
2019-05-28T22:03:16.843Z,6.80
2019-05-28T22:05:48.151Z,7.43
2019-05-28T22:08:19.258Z,7.00
2019-05-28T22:10:50.529Z,6.47
2019-05-28T22:13:22.813Z,6.67
2019-05-28T22:15:54.250Z,7.50
2019-05-28T22:18:25.484Z,7.03
2019-05-28T22:20:58.109Z,7.13
2019-05-28T22:23:29.314Z,6.63
2019-05-28T22:26:00.864Z,6.80
2019-05-28T22:28:32.469Z,6.50
2019-05-28T22:31:03.900Z,7.20
2019-05-28T22:33:35.685Z,7.10
2019-05-28T22:36:07.557Z,6.90
2019-05-28T22:38:38.804Z,7.23
2019-05-28T22:41:10.052Z,6.30
2019-05-28T22:43:41.666Z,7.20
2019-05-28T22:46:12.843Z,6.90
2019-05-28T22:48:44.401Z,6.80
2019-05-28T22:51:15.775Z,7.60
2019-05-28T22:53:47.369Z,6.73
2019-05-28T22:56:18.905Z,7.30
2019-05-28T22:58:49.990Z,7.50
2019-05-28T23:01:21.256Z,6.80
2019-05-28T23:03:52.721Z,6.93
2019-05-28T23:06:23.993Z,7.40
2019-05-28T23:08:55.160Z,7.33
2019-05-28T23:11:26.290Z,7.20
2019-05-28T23:13:57.452Z,6.90
2019-05-28T23:16:28.753Z,7.07
2019-05-28T23:19:00.419Z,7.20
2019-05-28T23:21:31.835Z,7.30
2019-05-28T23:24:03.210Z,7.27
2019-05-28T23:26:34.483Z,7.77
2019-05-28T23:29:05.873Z,6.93
2019-05-28T23:31:37.096Z,7.53
2019-05-28T23:34:08.411Z,6.80
2019-05-28T23:36:39.999Z,7.90
2019-05-28T23:39:11.183Z,7.37
2019-05-28T23:41:42.677Z,7.70
2019-05-28T23:44:13.971Z,7.70
2019-05-28T23:46:45.263Z,8.50
2019-05-28T23:49:18.078Z,7.77
2019-05-28T23:51:49.632Z,7.57
2019-05-28T23:54:20.819Z,9.30
2019-05-28T23:56:52.003Z,11.30
2019-05-28T23:59:23.337Z,11.33
